Time;durP1;ratioP1;P1;durP2;ratioP2;P2;SDS_P1;SDS_P2;PMS_P1;PMS_P2;Temp;Humidity;BMP_temperature;BMP_pressure;BME280_temperature;BME280_humidity;BME280_pressure;Samples;Min_cycle;Max_cycle;Signal;HPM_P1;HPM_P2
2021/06/19 00:02:18;;;;;;;;;;;19.30;99.90;;;;;;4961132;28;19932;-79
2021/06/19 00:04:45;;;;;;;;;;;19.30;99.90;;;;;;4966493;28;19933;-79
2021/06/19 00:07:11;;;;;;;;;;;19.30;99.90;;;;;;4963136;28;21250;-79
2021/06/19 00:09:38;;;;;;;;;;;19.30;99.90;;;;;;4963939;28;19926;-79
2021/06/19 00:12:05;;;;;;;;;;;19.30;99.90;;;;;;4962321;28;20112;-79
2021/06/19 00:14:32;;;;;;;;;;;19.30;99.90;;;;;;4964908;28;19922;-80
2021/06/19 00:16:59;;;;;;;;;;;19.30;99.90;;;;;;4963634;28;20856;-79
2021/06/19 00:19:25;;;;;;;;;;;19.30;99.90;;;;;;4963959;28;20309;-79
2021/06/19 00:21:52;;;;;;;;;;;19.30;99.90;;;;;;4962792;28;19932;-79
2021/06/19 00:24:21;;;;;;;;;;;19.30;99.90;;;;;;4963298;28;20581;-80
2021/06/19 00:26:47;;;;;;;;;;;19.20;99.90;;;;;;4964634;28;19946;-79
2021/06/19 00:29:14;;;;;;;;;;;19.20;99.90;;;;;;4963509;28;22083;-79
2021/06/19 00:31:41;;;;;;;;;;;19.20;99.90;;;;;;4966243;28;19986;-79
2021/06/19 00:34:08;;;;;;;;;;;19.20;99.90;;;;;;4965119;28;19938;-79
2021/06/19 00:36:35;;;;;;;;;;;19.20;99.90;;;;;;4963927;28;19933;-79
2021/06/19 00:39:03;;;;;;;;;;;19.20;99.90;;;;;;4965070;28;20391;-79
2021/06/19 00:41:29;;;;;;;;;;;19.20;99.90;;;;;;4967564;28;19925;-79
2021/06/19 00:43:56;;;;;;;;;;;19.30;99.90;;;;;;4966220;28;19926;-79
2021/06/19 00:46:23;;;;;;;;;;;19.30;99.90;;;;;;4962404;28;21416;-79
2021/06/19 00:48:49;;;;;;;;;;;19.30;99.90;;;;;;4962560;28;19933;-80
2021/06/19 00:51:16;;;;;;;;;;;19.20;99.90;;;;;;4967414;28;19925;-79
2021/06/19 00:53:43;;;;;;;;;;;19.30;99.90;;;;;;4962330;28;19926;-80
2021/06/19 00:56:09;;;;;;;;;;;19.30;99.90;;;;;;4964796;28;20032;-79
2021/06/19 00:58:37;;;;;;;;;;;19.30;99.90;;;;;;4964271;28;19925;-80
2021/06/19 01:01:04;;;;;;;;;;;19.30;99.90;;;;;;4965446;28;19926;-79
2021/06/19 01:03:30;;;;;;;;;;;19.30;99.90;;;;;;4962534;28;19961;-80
2021/06/19 01:05:57;;;;;;;;;;;19.30;99.90;;;;;;4960410;28;19926;-79
2021/06/19 01:08:24;;;;;;;;;;;19.30;99.90;;;;;;4969550;28;19949;-79
2021/06/19 01:10:53;;;;;;;;;;;19.30;99.90;;;;;;4961676;28;19922;-79
2021/06/19 01:13:19;;;;;;;;;;;19.30;99.90;;;;;;4965628;28;20472;-79
2021/06/19 01:15:46;;;;;;;;;;;19.30;99.90;;;;;;4966008;28;19934;-79
2021/06/19 01:18:24;;;;;;;;;;;19.40;99.90;;;;;;4965149;28;20330;-80
2021/06/19 01:20:51;;;;;;;;;;;19.30;99.90;;;;;;4963024;28;20293;-79
2021/06/19 01:23:17;;;;;;;;;;;19.30;99.90;;;;;;4963281;28;19926;-80
2021/06/19 01:25:44;;;;;;;;;;;19.40;99.90;;;;;;4964713;28;19930;-79
2021/06/19 01:28:11;;;;;;;;;;;19.40;99.90;;;;;;4967366;28;19926;-80
2021/06/19 01:30:38;;;;;;;;;;;19.40;99.90;;;;;;4960794;28;19930;-79
2021/06/19 01:33:08;;;;;;;;;;;19.40;99.90;;;;;;4967102;28;20361;-80
2021/06/19 01:35:35;;;;;;;;;;;19.40;99.90;;;;;;4962949;28;19926;-80
2021/06/19 01:38:04;;;;;;;;;;;19.40;99.90;;;;;;4965979;28;19929;-79
2021/06/19 01:40:31;;;;;;;;;;;19.40;99.90;;;;;;4980455;28;19932;-79
2021/06/19 01:42:58;;;;;;;;;;;19.40;99.90;;;;;;4963816;28;19936;-79
2021/06/19 01:45:32;;;;;;;;;;;19.50;99.90;;;;;;4961913;28;19980;-79
2021/06/19 01:48:02;;;;;;;;;;;19.50;99.90;;;;;;4966196;28;19926;-79
2021/06/19 01:50:29;;;;;;;;;;;19.50;99.90;;;;;;4964017;28;19932;-79
2021/06/19 01:52:56;;;;;;;;;;;19.50;99.90;;;;;;4966210;28;19983;-79
2021/06/19 01:55:23;;;;;;;;;;;19.50;99.90;;;;;;4965476;28;19953;-79
2021/06/19 01:57:51;;;;;;;;;;;19.50;99.90;;;;;;4962956;28;19936;-80
2021/06/19 02:00:19;;;;;;;;;;;19.50;99.90;;;;;;4964447;28;19926;-79
2021/06/19 02:02:46;;;;;;;;;;;19.50;99.90;;;;;;4964749;28;19922;-79
2021/06/19 02:05:13;;;;;;;;;;;19.50;99.90;;;;;;4964645;28;19932;-80
2021/06/19 02:07:51;;;;;;;;;;;19.50;99.90;;;;;;4965999;28;19922;-80
2021/06/19 02:10:18;;;;;;;;;;;19.50;99.90;;;;;;4966973;28;19928;-79
2021/06/19 02:12:46;;;;;;;;;;;19.50;99.90;;;;;;4969627;28;20366;-80
2021/06/19 02:15:13;;;;;;;;;;;19.50;99.90;;;;;;4960653;28;19933;-79
2021/06/19 02:17:39;;;;;;;;;;;19.50;99.90;;;;;;4961311;28;19949;-79
2021/06/19 02:20:07;;;;;;;;;;;19.50;99.90;;;;;;4965671;28;19926;-79
2021/06/19 02:22:34;;;;;;;;;;;19.50;99.90;;;;;;4965815;28;19933;-79
2021/06/19 02:25:03;;;;;;;;;;;19.50;99.90;;;;;;4967124;28;19937;-79
2021/06/19 02:27:29;;;;;;;;;;;19.50;99.90;;;;;;4962795;28;19933;-79
2021/06/19 02:29:56;;;;;;;;;;;19.50;99.90;;;;;;4961335;28;19933;-80
2021/06/19 02:32:23;;;;;;;;;;;19.60;99.90;;;;;;4965497;28;19933;-79
2021/06/19 02:34:50;;;;;;;;;;;19.50;99.90;;;;;;4967749;28;20021;-79
2021/06/19 02:37:16;;;;;;;;;;;19.50;99.90;;;;;;4967313;28;19930;-79
2021/06/19 02:39:43;;;;;;;;;;;19.50;99.90;;;;;;4967921;28;19932;-79
2021/06/19 02:42:10;;;;;;;;;;;19.50;99.90;;;;;;4964450;28;19958;-79
2021/06/19 02:44:37;;;;;;;;;;;19.50;99.90;;;;;;4963753;28;19957;-79
2021/06/19 02:47:04;;;;;;;;;;;19.50;99.90;;;;;;4967211;28;19934;-79
2021/06/19 02:49:30;;;;;;;;;;;19.50;99.90;;;;;;4968204;28;20509;-79
2021/06/19 02:51:57;;;;;;;;;;;19.50;99.90;;;;;;4969395;28;19993;-79
2021/06/19 02:54:24;;;;;;;;;;;19.50;99.90;;;;;;4970513;28;19926;-80
2021/06/19 02:56:53;;;;;;;;;;;19.50;99.90;;;;;;4967319;28;19926;-79
2021/06/19 02:59:20;;;;;;;;;;;19.50;99.90;;;;;;4968233;28;20337;-79
2021/06/19 03:01:46;;;;;;;;;;;19.40;99.90;;;;;;4967434;28;20613;-80
2021/06/19 03:04:15;;;;;;;;;;;19.40;99.90;;;;;;4967539;28;20025;-80
2021/06/19 03:06:42;;;;;;;;;;;19.40;99.90;;;;;;4968903;28;19927;-80
2021/06/19 03:09:09;;;;;;;;;;;19.40;99.90;;;;;;4966215;28;20066;-79
2021/06/19 03:11:36;;;;;;;;;;;19.40;99.90;;;;;;4965251;28;19932;-80
2021/06/19 03:14:02;;;;;;;;;;;19.40;99.90;;;;;;4967938;28;20444;-79
2021/06/19 03:16:29;;;;;;;;;;;19.50;99.90;;;;;;4974324;28;19922;-80
2021/06/19 03:18:56;;;;;;;;;;;19.50;99.90;;;;;;4967809;28;19964;-79
2021/06/19 03:21:23;;;;;;;;;;;19.50;99.90;;;;;;4971611;28;19926;-79
2021/06/19 03:23:50;;;;;;;;;;;19.50;99.90;;;;;;4962983;28;24875;-80
2021/06/19 03:26:16;;;;;;;;;;;19.50;99.90;;;;;;4968057;28;19926;-79
2021/06/19 03:28:43;;;;;;;;;;;19.50;99.90;;;;;;4967752;28;19933;-80
2021/06/19 03:31:10;;;;;;;;;;;19.50;99.90;;;;;;4961856;28;19926;-79
2021/06/19 03:33:36;;;;;;;;;;;19.60;99.90;;;;;;4964578;28;19965;-80
2021/06/19 03:36:03;;;;;;;;;;;19.50;99.90;;;;;;4966264;28;19933;-79
2021/06/19 03:38:30;;;;;;;;;;;19.70;99.90;;;;;;4965054;28;20021;-79
2021/06/19 03:40:57;;;;;;;;;;;19.70;99.90;;;;;;4969012;28;19934;-77
2021/06/19 03:43:23;;;;;;;;;;;19.80;99.90;;;;;;4968135;28;19926;-79
2021/06/19 03:45:50;;;;;;;;;;;19.80;99.90;;;;;;4965364;28;19945;-79
2021/06/19 03:48:16;;;;;;;;;;;19.80;99.90;;;;;;4958314;28;19960;-80
2021/06/19 03:50:43;;;;;;;;;;;19.80;99.90;;;;;;4971616;28;19993;-79
2021/06/19 03:53:10;;;;;;;;;;;19.90;99.90;;;;;;4965611;28;19922;-80
2021/06/19 03:55:36;;;;;;;;;;;19.90;99.90;;;;;;4966873;28;19929;-79
2021/06/19 03:58:03;;;;;;;;;;;19.90;99.90;;;;;;4965046;28;19929;-79
2021/06/19 04:00:30;;;;;;;;;;;19.90;99.90;;;;;;4965305;28;20000;-80
2021/06/19 04:02:58;;;;;;;;;;;19.80;99.90;;;;;;4964282;28;19932;-80
2021/06/19 04:05:24;;;;;;;;;;;19.80;99.90;;;;;;4965539;28;20017;-79
2021/06/19 04:07:51;;;;;;;;;;;19.80;99.90;;;;;;4965797;28;19929;-80
2021/06/19 04:10:18;;;;;;;;;;;19.70;99.90;;;;;;4965014;28;19926;-78
2021/06/19 04:12:46;;;;;;;;;;;19.70;99.90;;;;;;4967170;28;20022;-79
2021/06/19 04:15:13;;;;;;;;;;;19.70;99.90;;;;;;4971759;28;20025;-79
2021/06/19 04:17:41;;;;;;;;;;;19.70;99.90;;;;;;4966194;28;19926;-79
2021/06/19 04:20:09;;;;;;;;;;;19.70;99.90;;;;;;4968779;28;19930;-79
2021/06/19 04:22:36;;;;;;;;;;;19.60;99.90;;;;;;4967069;28;19926;-79
2021/06/19 04:25:03;;;;;;;;;;;19.60;99.90;;;;;;4967997;28;19926;-79
2021/06/19 04:27:36;;;;;;;;;;;19.60;99.90;;;;;;4964426;28;19975;-79
2021/06/19 04:30:03;;;;;;;;;;;19.60;99.90;;;;;;4962163;28;20403;-79
2021/06/19 04:32:30;;;;;;;;;;;19.60;99.90;;;;;;4961311;28;19936;-79
2021/06/19 04:34:57;;;;;;;;;;;19.60;99.90;;;;;;4965067;28;19926;-79
2021/06/19 04:37:26;;;;;;;;;;;19.60;99.90;;;;;;4966653;28;19926;-79
2021/06/19 04:42:46;;;;;;;;;;;19.60;99.90;;;;;;4970290;28;20667;-80
2021/06/19 04:45:13;;;;;;;;;;;19.60;99.90;;;;;;4964019;28;19926;-79
2021/06/19 04:47:40;;;;;;;;;;;19.70;99.90;;;;;;4965225;28;20471;-79
2021/06/19 04:50:08;;;;;;;;;;;19.70;99.90;;;;;;4965260;28;19926;-79
2021/06/19 04:52:39;;;;;;;;;;;19.70;99.90;;;;;;4961695;28;20608;-79
2021/06/19 04:55:06;;;;;;;;;;;19.70;99.90;;;;;;4966389;28;21078;-80
2021/06/19 04:57:33;;;;;;;;;;;19.70;99.90;;;;;;4964304;28;20370;-79
2021/06/19 04:59:59;;;;;;;;;;;19.70;99.90;;;;;;4964239;28;19933;-79
2021/06/19 05:02:26;;;;;;;;;;;19.70;99.90;;;;;;4963259;28;19929;-80
2021/06/19 05:04:53;;;;;;;;;;;19.70;99.90;;;;;;4968727;28;19954;-79
2021/06/19 05:07:19;;;;;;;;;;;19.70;99.90;;;;;;4965628;28;19926;-79
2021/06/19 05:09:46;;;;;;;;;;;19.70;99.90;;;;;;4963681;28;20404;-79
2021/06/19 05:12:13;;;;;;;;;;;19.70;99.90;;;;;;4963198;28;19948;-79
2021/06/19 05:14:40;;;;;;;;;;;19.70;99.90;;;;;;4961393;28;20000;-79
2021/06/19 05:17:06;;;;;;;;;;;19.70;99.90;;;;;;4964762;28;19936;-80
2021/06/19 05:19:33;;;;;;;;;;;19.60;99.90;;;;;;4965041;28;20378;-79
2021/06/19 05:21:59;;;;;;;;;;;19.60;99.90;;;;;;4963455;28;20021;-78
2021/06/19 05:24:26;;;;;;;;;;;19.60;99.90;;;;;;4964404;28;19932;-79
2021/06/19 05:26:53;;;;;;;;;;;19.60;99.90;;;;;;4962124;28;19932;-78
2021/06/19 05:29:20;;;;;;;;;;;19.60;99.90;;;;;;4962097;28;19933;-79
2021/06/19 05:31:47;;;;;;;;;;;19.60;99.90;;;;;;4963104;28;20445;-78
2021/06/19 05:34:13;;;;;;;;;;;19.70;99.90;;;;;;4963345;28;20087;-78
2021/06/19 05:36:40;;;;;;;;;;;19.70;99.90;;;;;;4959269;28;19926;-79
2021/06/19 05:39:07;;;;;;;;;;;19.80;99.90;;;;;;4967047;28;19926;-79
2021/06/19 05:41:35;;;;;;;;;;;19.80;99.90;;;;;;4959212;28;19927;-79
2021/06/19 05:44:02;;;;;;;;;;;19.80;99.90;;;;;;4960116;28;19932;-79
2021/06/19 05:46:29;;;;;;;;;;;19.80;99.90;;;;;;4959710;28;19923;-79
2021/06/19 05:48:57;;;;;;;;;;;19.90;99.90;;;;;;4964944;28;19926;-80
2021/06/19 05:51:27;;;;;;;;;;;20.00;99.90;;;;;;4960406;28;19926;-78
2021/06/19 05:53:53;;;;;;;;;;;20.00;99.90;;;;;;4961589;28;19936;-79
2021/06/19 05:56:20;;;;;;;;;;;20.00;99.90;;;;;;4961670;28;19922;-79
2021/06/19 05:58:47;;;;;;;;;;;20.00;99.90;;;;;;4961025;28;19936;-79
2021/06/19 06:01:13;;;;;;;;;;;20.00;99.90;;;;;;4963636;28;19961;-79
2021/06/19 06:03:40;;;;;;;;;;;19.90;99.90;;;;;;4963700;28;19922;-79
2021/06/19 06:06:07;;;;;;;;;;;19.80;99.90;;;;;;4965424;28;20493;-79
2021/06/19 06:08:34;;;;;;;;;;;19.90;99.90;;;;;;4965388;28;19954;-79
2021/06/19 06:11:01;;;;;;;;;;;19.90;99.90;;;;;;4970031;28;19998;-79
2021/06/19 06:13:28;;;;;;;;;;;19.90;99.90;;;;;;4959509;28;19965;-79
2021/06/19 06:15:54;;;;;;;;;;;19.90;99.90;;;;;;4962006;28;19981;-80
2021/06/19 06:18:21;;;;;;;;;;;19.90;99.90;;;;;;4967241;28;24460;-79
2021/06/19 06:20:50;;;;;;;;;;;19.90;99.90;;;;;;4965848;28;20262;-80
2021/06/19 06:23:17;;;;;;;;;;;19.90;99.90;;;;;;4964057;28;19953;-77
2021/06/19 06:25:44;;;;;;;;;;;20.00;99.90;;;;;;4965957;28;19981;-79
2021/06/19 06:28:14;;;;;;;;;;;20.00;99.90;;;;;;4965270;28;20025;-79
2021/06/19 06:30:40;;;;;;;;;;;20.00;99.90;;;;;;4968540;28;20496;-79
2021/06/19 06:33:07;;;;;;;;;;;19.90;99.90;;;;;;4973524;28;20044;-79
2021/06/19 06:35:34;;;;;;;;;;;19.90;99.90;;;;;;4962481;28;19965;-78
2021/06/19 06:38:00;;;;;;;;;;;19.80;99.90;;;;;;4974169;28;19926;-80
2021/06/19 06:40:30;;;;;;;;;;;19.80;99.90;;;;;;4971278;28;19926;-79
2021/06/19 06:42:57;;;;;;;;;;;19.80;99.90;;;;;;4968844;28;20368;-79
2021/06/19 06:45:24;;;;;;;;;;;19.80;99.90;;;;;;4966575;28;19980;-79
2021/06/19 06:47:51;;;;;;;;;;;19.80;99.90;;;;;;4969975;28;21088;-79
2021/06/19 06:50:18;;;;;;;;;;;19.90;99.90;;;;;;4966992;28;19925;-78
2021/06/19 06:52:46;;;;;;;;;;;19.90;99.90;;;;;;4967092;28;19946;-79
2021/06/19 06:55:13;;;;;;;;;;;19.90;99.90;;;;;;4966191;28;19927;-80
2021/06/19 06:57:41;;;;;;;;;;;20.00;99.90;;;;;;4961627;28;19985;-79
2021/06/19 07:00:08;;;;;;;;;;;20.10;99.90;;;;;;4962339;28;22748;-80
2021/06/19 07:02:38;;;;;;;;;;;20.10;99.90;;;;;;4963576;28;20021;-79
2021/06/19 07:05:05;;;;;;;;;;;20.20;99.90;;;;;;4966974;28;19926;-79
2021/06/19 07:07:32;;;;;;;;;;;20.30;99.90;;;;;;4965856;28;19933;-79
2021/06/19 07:09:58;;;;;;;;;;;20.40;99.90;;;;;;4969034;28;19929;-78
2021/06/19 07:12:25;;;;;;;;;;;20.50;99.90;;;;;;4966956;28;19930;-80
2021/06/19 07:14:52;;;;;;;;;;;20.70;99.90;;;;;;4967636;28;19922;-78
2021/06/19 07:17:19;;;;;;;;;;;20.90;99.90;;;;;;4967124;28;20067;-79
2021/06/19 07:19:45;;;;;;;;;;;21.00;99.90;;;;;;4964914;28;24258;-79
2021/06/19 07:22:12;;;;;;;;;;;21.10;99.90;;;;;;4964153;28;20681;-79
2021/06/19 07:24:38;;;;;;;;;;;21.30;99.90;;;;;;4967723;28;19966;-77
2021/06/19 07:27:05;;;;;;;;;;;21.50;99.90;;;;;;4969731;28;19926;-80
2021/06/19 07:29:32;;;;;;;;;;;21.70;99.90;;;;;;4968263;28;19922;-80
2021/06/19 07:31:59;;;;;;;;;;;21.80;99.90;;;;;;4968087;28;20016;-80
2021/06/19 07:34:27;;;;;;;;;;;21.70;99.90;;;;;;4967256;28;20148;-80
2021/06/19 07:36:54;;;;;;;;;;;21.70;99.90;;;;;;4959137;28;19989;-79
2021/06/19 07:39:22;;;;;;;;;;;21.70;99.90;;;;;;4957738;28;19926;-80
2021/06/19 07:41:48;;;;;;;;;;;21.60;99.90;;;;;;4968302;28;20364;-80
2021/06/19 07:44:15;;;;;;;;;;;21.60;99.90;;;;;;4970456;28;20016;-80
2021/06/19 07:46:42;;;;;;;;;;;21.50;99.90;;;;;;4968460;28;19932;-80
2021/06/19 07:49:15;;;;;;;;;;;21.40;99.90;;;;;;4967782;28;19926;-80
2021/06/19 07:51:42;;;;;;;;;;;21.40;99.90;;;;;;4967814;28;19950;-80
2021/06/19 07:54:17;;;;;;;;;;;21.30;99.90;;;;;;4964726;28;19934;-79
2021/06/19 07:56:46;;;;;;;;;;;21.30;99.90;;;;;;4966334;28;19993;-80
2021/06/19 07:59:13;;;;;;;;;;;21.30;99.90;;;;;;4983269;28;19926;-80
2021/06/19 08:01:40;;;;;;;;;;;21.50;99.90;;;;;;4968044;28;19965;-80
2021/06/19 08:04:07;;;;;;;;;;;21.60;99.90;;;;;;4952651;28;19934;-80
2021/06/19 08:06:33;;;;;;;;;;;21.60;99.90;;;;;;4968534;28;19923;-80
2021/06/19 08:09:01;;;;;;;;;;;21.70;99.90;;;;;;4961693;28;19933;-80
2021/06/19 08:11:27;;;;;;;;;;;21.60;99.90;;;;;;4946962;28;19934;-81
2021/06/19 08:13:54;;;;;;;;;;;21.60;99.90;;;;;;4948003;28;20520;-80
2021/06/19 08:16:22;;;;;;;;;;;21.50;99.90;;;;;;4959916;28;19936;-80
2021/06/19 08:18:52;;;;;;;;;;;21.40;99.90;;;;;;4964086;28;19961;-79
2021/06/19 08:21:18;;;;;;;;;;;21.30;99.90;;;;;;4960474;28;19926;-78
2021/06/19 08:23:45;;;;;;;;;;;21.30;99.90;;;;;;4966897;28;20388;-80
2021/06/19 08:26:13;;;;;;;;;;;21.30;99.90;;;;;;4968771;28;21241;-80
2021/06/19 08:28:39;;;;;;;;;;;21.30;99.90;;;;;;4969608;28;19953;-80
2021/06/19 08:31:06;;;;;;;;;;;21.30;99.90;;;;;;4952619;28;19932;-80
2021/06/19 08:33:33;;;;;;;;;;;21.20;99.90;;;;;;4965347;28;19933;-79
2021/06/19 08:36:00;;;;;;;;;;;21.10;99.90;;;;;;4964812;28;20370;-79
2021/06/19 08:38:26;;;;;;;;;;;21.00;99.90;;;;;;4964982;28;20009;-79
2021/06/19 08:40:53;;;;;;;;;;;21.00;99.90;;;;;;4964328;28;21785;-79
2021/06/19 08:43:20;;;;;;;;;;;20.90;99.90;;;;;;4962454;28;20705;-79
2021/06/19 08:45:48;;;;;;;;;;;21.00;99.90;;;;;;4950330;28;19926;-80
2021/06/19 08:48:16;;;;;;;;;;;21.00;99.90;;;;;;4965253;28;19926;-80
2021/06/19 08:50:44;;;;;;;;;;;21.00;99.90;;;;;;4964546;28;19948;-80
2021/06/19 08:53:11;;;;;;;;;;;21.00;99.90;;;;;;4964118;28;19965;-79
2021/06/19 08:55:38;;;;;;;;;;;21.00;99.90;;;;;;4961276;28;20357;-79
2021/06/19 08:58:05;;;;;;;;;;;21.00;99.90;;;;;;4963357;28;19928;-79
2021/06/19 09:00:31;;;;;;;;;;;21.00;99.90;;;;;;4963691;28;22443;-79
2021/06/19 09:02:58;;;;;;;;;;;21.00;99.90;;;;;;4960706;28;19926;-79
2021/06/19 09:05:30;;;;;;;;;;;20.90;99.90;;;;;;4963174;28;20369;-80
2021/06/19 09:08:17;;;;;;;;;;;20.90;99.90;;;;;;4971694;28;19922;-80
2021/06/19 09:10:43;;;;;;;;;;;20.70;99.90;;;;;;4964918;28;19923;-81
2021/06/19 09:13:10;;;;;;;;;;;20.70;99.90;;;;;;4965655;28;20016;-80
2021/06/19 09:15:42;;;;;;;;;;;20.60;99.90;;;;;;4967652;28;19928;-81
2021/06/19 09:18:14;;;;;;;;;;;20.70;99.90;;;;;;4951812;28;19926;-79
2021/06/19 09:20:47;;;;;;;;;;;20.80;99.90;;;;;;4943984;28;19932;-79
2021/06/19 09:23:14;;;;;;;;;;;20.80;99.90;;;;;;4968536;28;20342;-81
2021/06/19 09:25:40;;;;;;;;;;;20.90;99.90;;;;;;4963331;28;21353;-79
2021/06/19 09:28:08;;;;;;;;;;;21.00;99.90;;;;;;4966053;28;19930;-81
2021/06/19 09:30:35;;;;;;;;;;;21.30;99.90;;;;;;4960974;28;20005;-80
2021/06/19 09:33:07;;;;;;;;;;;21.50;99.90;;;;;;4972682;28;20368;-79
2021/06/19 09:35:35;;;;;;;;;;;21.70;99.90;;;;;;4966542;28;19949;-80
2021/06/19 09:38:02;;;;;;;;;;;21.70;99.90;;;;;;4968552;28;20277;-81
2021/06/19 09:40:30;;;;;;;;;;;21.50;99.90;;;;;;4964931;28;20548;-80
2021/06/19 09:43:16;;;;;;;;;;;21.40;99.90;;;;;;4972470;28;20420;-80
2021/06/19 09:45:46;;;;;;;;;;;21.50;99.90;;;;;;4971910;28;19956;-80
2021/06/19 09:48:48;;;;;;;;;;;22.00;99.90;;;;;;4984531;28;19997;-80
2021/06/19 09:51:20;;;;;;;;;;;22.50;99.90;;;;;;4966049;28;19949;-79
2021/06/19 09:53:52;;;;;;;;;;;23.00;99.90;;;;;;4953494;28;19926;-80
2021/06/19 09:56:20;;;;;;;;;;;23.30;99.90;;;;;;4964200;28;19925;-80
2021/06/19 09:58:53;;;;;;;;;;;23.50;99.90;;;;;;4968505;28;19926;-80
2021/06/19 10:01:42;;;;;;;;;;;23.50;99.90;;;;;;4963979;28;19945;-80
2021/06/19 10:04:21;;;;;;;;;;;23.50;99.90;;;;;;4977285;28;19928;-80
2021/06/19 10:06:49;;;;;;;;;;;23.60;99.90;;;;;;4970453;28;24384;-80
2021/06/19 10:09:19;;;;;;;;;;;23.70;99.90;;;;;;4959947;28;19950;-80
2021/06/19 10:11:48;;;;;;;;;;;23.80;99.90;;;;;;4975634;28;20010;-80
2021/06/19 10:14:18;;;;;;;;;;;23.90;99.90;;;;;;4970781;28;19929;-80
2021/06/19 10:16:46;;;;;;;;;;;23.90;99.90;;;;;;4967565;28;20445;-80
2021/06/19 10:19:25;;;;;;;;;;;23.90;99.90;;;;;;4974093;28;19937;-80
2021/06/19 10:21:53;;;;;;;;;;;23.90;99.90;;;;;;4935463;28;20012;-80
2021/06/19 10:24:31;;;;;;;;;;;23.90;99.90;;;;;;4943717;28;19933;-80
2021/06/19 10:27:03;;;;;;;;;;;24.00;99.90;;;;;;4964872;28;19934;-80
2021/06/19 10:29:31;;;;;;;;;;;24.00;99.90;;;;;;4954834;28;19948;-80
2021/06/19 10:32:01;;;;;;;;;;;23.90;99.90;;;;;;4968723;28;19926;-79
2021/06/19 10:34:29;;;;;;;;;;;23.70;99.90;;;;;;4965293;28;20415;-79
2021/06/19 10:37:01;;;;;;;;;;;23.50;99.90;;;;;;4966551;28;19926;-79
2021/06/19 10:39:32;;;;;;;;;;;23.40;99.90;;;;;;4959321;28;20053;-80
2021/06/19 10:41:59;;;;;;;;;;;23.20;99.90;;;;;;4967142;28;19933;-79
2021/06/19 10:44:44;;;;;;;;;;;22.90;99.90;;;;;;4969005;28;19932;-79
2021/06/19 10:47:11;;;;;;;;;;;22.70;99.90;;;;;;4966185;28;19926;-79
2021/06/19 10:49:40;;;;;;;;;;;22.60;99.90;;;;;;4968041;28;19926;-79
2021/06/19 10:52:26;;;;;;;;;;;22.50;99.90;;;;;;4965380;28;20017;-81
2021/06/19 10:55:09;;;;;;;;;;;22.40;99.90;;;;;;4971384;28;19961;-79
2021/06/19 10:57:44;;;;;;;;;;;22.40;99.90;;;;;;4972601;28;19932;-78
2021/06/19 11:00:29;;;;;;;;;;;22.30;99.90;;;;;;4964145;28;20012;-79
2021/06/19 11:02:58;;;;;;;;;;;22.40;99.90;;;;;;4966043;28;20047;-81
2021/06/19 11:05:43;;;;;;;;;;;22.40;99.90;;;;;;4965835;28;19961;-79
2021/06/19 11:08:19;;;;;;;;;;;22.40;99.90;;;;;;4966870;28;19926;-80
2021/06/19 11:10:48;;;;;;;;;;;22.30;99.90;;;;;;4973029;28;19922;-80
2021/06/19 11:13:27;;;;;;;;;;;22.20;99.90;;;;;;4961867;28;20262;-80
2021/06/19 11:16:00;;;;;;;;;;;22.10;99.90;;;;;;4967846;28;19933;-80
2021/06/19 11:18:45;;;;;;;;;;;22.10;99.90;;;;;;4950179;28;20028;-81
2021/06/19 11:21:13;;;;;;;;;;;22.10;99.90;;;;;;4975461;28;20009;-80
2021/06/19 11:23:58;;;;;;;;;;;22.30;99.90;;;;;;4969461;28;20838;-80
2021/06/19 11:26:44;;;;;;;;;;;22.40;99.90;;;;;;4971089;28;19922;-81
2021/06/19 11:29:29;;;;;;;;;;;23.00;99.90;;;;;;4971553;28;19925;-81
2021/06/19 11:31:56;;;;;;;;;;;23.90;99.90;;;;;;4974869;28;19932;-80
2021/06/19 11:34:42;;;;;;;;;;;24.70;99.90;;;;;;4964248;28;19926;-80
2021/06/19 11:37:08;;;;;;;;;;;25.20;99.90;;;;;;4971306;28;19932;-80
2021/06/19 11:39:35;;;;;;;;;;;25.60;99.90;;;;;;4962879;28;19931;-80
2021/06/19 11:42:02;;;;;;;;;;;25.70;99.90;;;;;;4966453;28;19961;-80
2021/06/19 11:44:32;;;;;;;;;;;26.00;99.90;;;;;;4982889;28;19933;-80
2021/06/19 11:47:03;;;;;;;;;;;25.90;99.90;;;;;;4968152;28;19930;-80
2021/06/19 11:49:32;;;;;;;;;;;25.60;99.90;;;;;;4966735;28;19922;-80
2021/06/19 11:51:59;;;;;;;;;;;25.50;99.90;;;;;;4973855;28;19993;-80
2021/06/19 11:54:26;;;;;;;;;;;25.50;99.90;;;;;;4974011;28;19990;-79
2021/06/19 11:56:56;;;;;;;;;;;25.70;99.90;;;;;;4970941;28;19926;-80
2021/06/19 11:59:23;;;;;;;;;;;25.80;99.90;;;;;;4965817;28;19989;-79
2021/06/19 12:01:50;;;;;;;;;;;26.00;99.90;;;;;;4963288;28;19926;-79
2021/06/19 12:04:18;;;;;;;;;;;25.90;99.90;;;;;;4969538;28;19986;-81
2021/06/19 12:06:49;;;;;;;;;;;25.70;99.90;;;;;;4965713;28;20396;-79
2021/06/19 12:09:25;;;;;;;;;;;25.60;99.90;;;;;;4971770;28;19993;-80
2021/06/19 12:11:53;;;;;;;;;;;25.50;99.90;;;;;;4972268;28;19926;-80
2021/06/19 12:14:24;;;;;;;;;;;25.20;99.90;;;;;;4954901;28;19948;-79
2021/06/19 12:16:53;;;;;;;;;;;24.90;99.90;;;;;;4979106;28;20071;-79
2021/06/19 12:19:25;;;;;;;;;;;24.80;99.90;;;;;;4962855;28;19927;-80
2021/06/19 12:21:55;;;;;;;;;;;24.60;99.90;;;;;;4969474;28;20373;-80
2021/06/19 12:24:24;;;;;;;;;;;24.30;99.90;;;;;;4968453;28;19930;-80
2021/06/19 12:27:00;;;;;;;;;;;24.00;99.90;;;;;;4968739;28;19968;-80
2021/06/19 12:29:45;;;;;;;;;;;23.70;99.90;;;;;;4974421;28;19922;-79
2021/06/19 12:32:18;;;;;;;;;;;23.60;99.90;;;;;;4966044;28;19953;-80
2021/06/19 12:34:44;;;;;;;;;;;23.50;99.90;;;;;;4965838;28;19961;-80
2021/06/19 12:37:11;;;;;;;;;;;23.50;99.90;;;;;;4960606;28;20012;-80
2021/06/19 12:39:38;;;;;;;;;;;23.40;99.90;;;;;;4966442;28;19932;-80
2021/06/19 12:42:05;;;;;;;;;;;23.30;99.90;;;;;;4962784;28;20005;-80
2021/06/19 12:44:33;;;;;;;;;;;23.20;99.90;;;;;;4962084;28;20025;-80
2021/06/19 12:47:16;;;;;;;;;;;23.20;99.90;;;;;;4944090;28;19930;-80
2021/06/19 12:49:57;;;;;;;;;;;23.20;99.90;;;;;;4967611;28;19926;-81
2021/06/19 12:52:24;;;;;;;;;;;23.10;99.90;;;;;;4966135;28;19928;-80
2021/06/19 12:55:13;;;;;;;;;;;23.20;99.90;;;;;;4958654;28;20483;-80
2021/06/19 12:57:40;;;;;;;;;;;23.10;99.90;;;;;;4967185;28;19927;-80
2021/06/19 13:00:09;;;;;;;;;;;23.00;99.90;;;;;;4972479;28;19946;-80
2021/06/19 13:02:56;;;;;;;;;;;22.90;99.90;;;;;;4971330;28;19922;-80
2021/06/19 13:05:23;;;;;;;;;;;22.90;99.90;;;;;;4938363;28;19926;-80
2021/06/19 13:07:50;;;;;;;;;;;22.70;99.90;;;;;;4944825;28;19929;-79
2021/06/19 13:10:30;;;;;;;;;;;22.50;99.90;;;;;;4964720;28;20461;-79
2021/06/19 13:12:56;;;;;;;;;;;22.40;99.90;;;;;;4962891;28;19922;-79
2021/06/19 13:15:25;;;;;;;;;;;22.30;99.90;;;;;;4963483;28;19922;-79
2021/06/19 13:17:52;;;;;;;;;;;22.30;99.90;;;;;;4966657;28;19930;-79
2021/06/19 13:20:25;;;;;;;;;;;22.30;99.90;;;;;;4966059;28;21019;-79
2021/06/19 13:23:01;;;;;;;;;;;22.30;99.90;;;;;;4962739;28;19989;-79
2021/06/19 13:25:47;;;;;;;;;;;22.30;99.90;;;;;;4961486;28;19965;-79
2021/06/19 13:28:14;;;;;;;;;;;22.40;99.90;;;;;;4965782;28;20362;-80
2021/06/19 13:30:40;;;;;;;;;;;22.40;99.90;;;;;;4967518;28;19937;-80
2021/06/19 13:33:07;;;;;;;;;;;22.40;99.90;;;;;;4963718;28;19929;-80
2021/06/19 13:35:47;;;;;;;;;;;22.40;99.90;;;;;;4964197;28;19933;-80
2021/06/19 13:38:13;;;;;;;;;;;22.30;99.90;;;;;;4946242;28;19989;-79
2021/06/19 13:40:40;;;;;;;;;;;22.10;99.90;;;;;;4957689;28;19949;-80
2021/06/19 13:43:13;;;;;;;;;;;22.00;99.90;;;;;;4960819;28;20062;-80
2021/06/19 13:45:40;;;;;;;;;;;22.10;99.90;;;;;;4971181;28;19926;-81
2021/06/19 13:48:07;;;;;;;;;;;22.10;99.90;;;;;;4966796;28;19930;-80
2021/06/19 13:50:34;;;;;;;;;;;22.10;99.90;;;;;;4970840;28;19933;-81
2021/06/19 13:53:02;;;;;;;;;;;22.10;99.90;;;;;;4954578;28;21114;-80
2021/06/19 13:55:29;;;;;;;;;;;22.10;99.90;;;;;;4958660;28;19977;-80
2021/06/19 13:57:55;;;;;;;;;;;22.20;99.90;;;;;;4967850;28;19931;-80
2021/06/19 14:00:24;;;;;;;;;;;22.20;99.90;;;;;;4965394;28;20385;-81
2021/06/19 14:02:51;;;;;;;;;;;22.20;99.90;;;;;;4963751;28;19997;-80
2021/06/19 14:05:18;;;;;;;;;;;22.20;99.90;;;;;;4972703;28;19930;-81
2021/06/19 14:07:44;;;;;;;;;;;22.30;99.90;;;;;;4968135;28;20353;-80
2021/06/19 14:10:11;;;;;;;;;;;22.30;99.90;;;;;;4971148;28;19926;-80
2021/06/19 14:12:41;;;;;;;;;;;22.40;99.90;;;;;;4966466;28;21012;-79
2021/06/19 14:15:14;;;;;;;;;;;22.40;99.90;;;;;;4940087;28;19922;-80
2021/06/19 14:17:41;;;;;;;;;;;22.40;99.90;;;;;;4958924;28;19930;-79
2021/06/19 14:20:08;;;;;;;;;;;22.50;99.90;;;;;;4960178;28;19993;-79
2021/06/19 14:22:35;;;;;;;;;;;22.60;99.90;;;;;;4966819;28;21006;-80
2021/06/19 14:25:02;;;;;;;;;;;22.90;99.90;;;;;;4966099;28;19923;-81
2021/06/19 14:27:29;;;;;;;;;;;23.30;99.90;;;;;;4965584;28;19933;-80
2021/06/19 14:29:56;;;;;;;;;;;23.60;99.90;;;;;;4974905;28;19985;-80